Terminal Aerodrome Forecast
Issued by NWS

Home | Current Version | Previous Version | Text Only | Print | Product List | Glossary On
Versions: 1 2 3 4 5 6 7 8 9 10 11 12 13 14 15 16 17 18 19 20 21
000
FTUS41 KALY 292321
TAFPSF
TAF
KPSF 292321Z 3000/3024 18004KT P6SM SCT250
     FM300500 00000KT 4SM BR SCT050 SCT250
      TEMPO 3005/3007 2SM BR VV006
     FM300700 00000KT 2SM BR VV006
      TEMPO 3007/3011 1/2SM FG VV004
     FM301200 25003KT P6SM SCT006 SCT080 BKN150
     FM301800 28007KT P6SM SCT040 SCT100=

USA.gov is the U.S. government's official web portal to all federal, state and local government web resources and services.